Weather at Sweet Springs Airport

Public forecast

Using degrees Fahrenheit for public forecast. Weather courtesy of forecast.io.

Closest aviation weather report (METAR) to Sweet Springs Airport

Closest report is Searcy Municipal Airport, 9.1 nm (16.9 km) SE. Retrieved 2020/09/29 15:56 UTC (48 minutes ago):

KSRC 291556Z AUTO 32005KT 10SM CLR 19/09 A3008 RMK AO2 SLP184 T01940094

Closest aviation forecast (TAF) to Sweet Springs Airport

Closest forecast is Little Rock Air Force Base, 27.3 nm (50.5 km) SSW. Retrieved 2020/09/29 15:15 UTC (1 hour ago):

TAF KLRF 291513Z 2915/3021 32009KT 9999 SKC QNH3005INS BECMG 2916/2917 32012G18KT 9999 FEW150 QNH2998INS BECMG 2922/2923 27006KT 9999 SKC QNH2998INS BECMG 3015/3016 21010G15KT 9999 SKC QNH2994INS TX21/2919Z TN12/3011Z